sensor_id;sensor_type;location;lat;lon;timestamp;temperature;humidity
26103;DHT22;32703;49.182;9.042;2022-10-12T00:01:14;12.20;99.90
26103;DHT22;32703;49.182;9.042;2022-10-12T00:03:40;12.20;99.90
26103;DHT22;32703;49.182;9.042;2022-10-12T00:06:12;12.10;99.90
26103;DHT22;32703;49.182;9.042;2022-10-12T00:08:39;12.10;99.90
26103;DHT22;32703;49.182;9.042;2022-10-12T00:11:07;12.00;99.90
26103;DHT22;32703;49.182;9.042;2022-10-12T00:13:33;11.90;99.90
26103;DHT22;32703;49.182;9.042;2022-10-12T00:16:31;11.80;99.90
26103;DHT22;32703;49.182;9.042;2022-10-12T00:18:57;11.80;99.90
26103;DHT22;32703;49.182;9.042;2022-10-12T00:21:26;11.70;99.90
26103;DHT22;32703;49.182;9.042;2022-10-12T00:23:58;11.70;99.90
26103;DHT22;32703;49.182;9.042;2022-10-12T00:26:24;11.60;99.90
26103;DHT22;32703;49.182;9.042;2022-10-12T00:28:57;11.60;99.90
26103;DHT22;32703;49.182;9.042;2022-10-12T00:31:24;11.60;99.90
26103;DHT22;32703;49.182;9.042;2022-10-12T00:33:49;11.50;99.90
26103;DHT22;32703;49.182;9.042;2022-10-12T00:36:18;11.50;99.90
26103;DHT22;32703;49.182;9.042;2022-10-12T00:38:44;11.50;99.90
26103;DHT22;32703;49.182;9.042;2022-10-12T00:41:11;11.50;99.90
26103;DHT22;32703;49.182;9.042;2022-10-12T00:43:39;11.40;99.90
26103;DHT22;32703;49.182;9.042;2022-10-12T00:46:16;11.40;99.90
26103;DHT22;32703;49.182;9.042;2022-10-12T00:48:44;11.40;99.90
26103;DHT22;32703;49.182;9.042;2022-10-12T00:51:11;11.40;99.90
26103;DHT22;32703;49.182;9.042;2022-10-12T00:53:42;11.40;99.90
26103;DHT22;32703;49.182;9.042;2022-10-12T00:56:14;11.40;99.90
26103;DHT22;32703;49.182;9.042;2022-10-12T00:58:42;11.50;99.90
26103;DHT22;32703;49.182;9.042;2022-10-12T01:01:08;11.40;99.90
26103;DHT22;32703;49.182;9.042;2022-10-12T01:03:34;11.40;99.90
26103;DHT22;32703;49.182;9.042;2022-10-12T01:06:01;11.30;99.90
26103;DHT22;32703;49.182;9.042;2022-10-12T01:08:27;11.30;99.90
26103;DHT22;32703;49.182;9.042;2022-10-12T01:10:53;11.20;99.90
26103;DHT22;32703;49.182;9.042;2022-10-12T01:13:20;11.20;99.90
26103;DHT22;32703;49.182;9.042;2022-10-12T01:15:55;11.10;99.90
26103;DHT22;32703;49.182;9.042;2022-10-12T01:21:19;11.00;99.90
26103;DHT22;32703;49.182;9.042;2022-10-12T01:26:49;10.80;99.90
26103;DHT22;32703;49.182;9.042;2022-10-12T01:31:56;10.70;99.90
26103;DHT22;32703;49.182;9.042;2022-10-12T01:34:37;10.60;99.90
26103;DHT22;32703;49.182;9.042;2022-10-12T01:37:14;10.60;99.90
26103;DHT22;32703;49.182;9.042;2022-10-12T01:39:52;10.50;99.90
26103;DHT22;32703;49.182;9.042;2022-10-12T01:42:25;10.50;99.90
26103;DHT22;32703;49.182;9.042;2022-10-12T01:45:15;10.50;99.90
26103;DHT22;32703;49.182;9.042;2022-10-12T01:47:42;10.40;99.90
26103;DHT22;32703;49.182;9.042;2022-10-12T01:50:13;10.40;99.90
26103;DHT22;32703;49.182;9.042;2022-10-12T01:56:10;10.40;99.90
26103;DHT22;32703;49.182;9.042;2022-10-12T01:58:57;10.40;99.90
26103;DHT22;32703;49.182;9.042;2022-10-12T02:01:35;10.40;99.90
26103;DHT22;32703;49.182;9.042;2022-10-12T02:07:13;10.40;99.90
26103;DHT22;32703;49.182;9.042;2022-10-12T02:09:41;10.40;99.90
26103;DHT22;32703;49.182;9.042;2022-10-12T02:12:11;10.30;99.90
26103;DHT22;32703;49.182;9.042;2022-10-12T02:14:42;10.30;99.90
26103;DHT22;32703;49.182;9.042;2022-10-12T02:17:12;10.30;99.90
26103;DHT22;32703;49.182;9.042;2022-10-12T02:19:41;10.30;99.90
26103;DHT22;32703;49.182;9.042;2022-10-12T02:22:09;10.30;99.90
26103;DHT22;32703;49.182;9.042;2022-10-12T02:24:38;10.20;99.90
26103;DHT22;32703;49.182;9.042;2022-10-12T02:27:06;10.20;99.90
26103;DHT22;32703;49.182;9.042;2022-10-12T02:29:39;10.20;99.90
26103;DHT22;32703;49.182;9.042;2022-10-12T02:34:36;10.30;99.90
26103;DHT22;32703;49.182;9.042;2022-10-12T02:37:11;10.40;99.90
26103;DHT22;32703;49.182;9.042;2022-10-12T02:39:52;10.40;99.90
26103;DHT22;32703;49.182;9.042;2022-10-12T02:42:34;10.50;99.90
26103;DHT22;32703;49.182;9.042;2022-10-12T02:45:03;10.50;99.90
26103;DHT22;32703;49.182;9.042;2022-10-12T02:47:31;10.50;99.90
26103;DHT22;32703;49.182;9.042;2022-10-12T02:49:59;10.60;99.90
26103;DHT22;32703;49.182;9.042;2022-10-12T02:52:25;10.60;99.90
26103;DHT22;32703;49.182;9.042;2022-10-12T02:54:51;10.60;99.90
26103;DHT22;32703;49.182;9.042;2022-10-12T02:57:16;10.70;99.90
26103;DHT22;32703;49.182;9.042;2022-10-12T02:59:42;10.70;99.90
26103;DHT22;32703;49.182;9.042;2022-10-12T03:02:08;10.70;99.90
26103;DHT22;32703;49.182;9.042;2022-10-12T03:04:35;10.60;99.90
26103;DHT22;32703;49.182;9.042;2022-10-12T03:07:01;10.70;99.90
26103;DHT22;32703;49.182;9.042;2022-10-12T03:09:26;10.70;99.90
26103;DHT22;32703;49.182;9.042;2022-10-12T03:11:52;10.70;99.90
26103;DHT22;32703;49.182;9.042;2022-10-12T03:14:18;10.70;99.90
26103;DHT22;32703;49.182;9.042;2022-10-12T03:16:45;10.70;99.90
26103;DHT22;32703;49.182;9.042;2022-10-12T03:19:12;10.70;99.90
26103;DHT22;32703;49.182;9.042;2022-10-12T03:21:38;10.70;99.90
26103;DHT22;32703;49.182;9.042;2022-10-12T03:24:04;10.60;99.90
26103;DHT22;32703;49.182;9.042;2022-10-12T03:26:32;10.70;99.90
26103;DHT22;32703;49.182;9.042;2022-10-12T03:28:57;10.70;99.90
26103;DHT22;32703;49.182;9.042;2022-10-12T03:31:23;10.70;99.90
26103;DHT22;32703;49.182;9.042;2022-10-12T03:33:48;10.70;99.90
26103;DHT22;32703;49.182;9.042;2022-10-12T03:36:14;10.70;99.90
26103;DHT22;32703;49.182;9.042;2022-10-12T03:38:40;10.80;99.90
26103;DHT22;32703;49.182;9.042;2022-10-12T03:41:05;10.70;99.90
26103;DHT22;32703;49.182;9.042;2022-10-12T03:43:31;10.80;99.90
26103;DHT22;32703;49.182;9.042;2022-10-12T03:45:56;10.80;99.90
26103;DHT22;32703;49.182;9.042;2022-10-12T03:48:22;10.80;99.90
26103;DHT22;32703;49.182;9.042;2022-10-12T03:50:48;10.90;99.90
26103;DHT22;32703;49.182;9.042;2022-10-12T03:53:18;10.90;99.90
26103;DHT22;32703;49.182;9.042;2022-10-12T03:55:44;11.00;99.90
26103;DHT22;32703;49.182;9.042;2022-10-12T03:58:10;11.00;99.90
26103;DHT22;32703;49.182;9.042;2022-10-12T04:00:36;11.00;99.90
26103;DHT22;32703;49.182;9.042;2022-10-12T04:03:01;11.00;99.90
26103;DHT22;32703;49.182;9.042;2022-10-12T04:05:28;10.90;99.90
26103;DHT22;32703;49.182;9.042;2022-10-12T04:07:53;11.00;99.90
26103;DHT22;32703;49.182;9.042;2022-10-12T04:10:19;11.00;99.90
26103;DHT22;32703;49.182;9.042;2022-10-12T04:12:45;10.90;99.90
26103;DHT22;32703;49.182;9.042;2022-10-12T04:15:11;10.90;99.90
26103;DHT22;32703;49.182;9.042;2022-10-12T04:17:36;10.90;99.90
26103;DHT22;32703;49.182;9.042;2022-10-12T04:20:02;10.90;99.90
26103;DHT22;32703;49.182;9.042;2022-10-12T04:22:28;11.00;99.90
26103;DHT22;32703;49.182;9.042;2022-10-12T04:24:54;10.90;99.90
26103;DHT22;32703;49.182;9.042;2022-10-12T04:27:20;10.90;99.90
26103;DHT22;32703;49.182;9.042;2022-10-12T04:29:45;10.90;99.90
26103;DHT22;32703;49.182;9.042;2022-10-12T04:32:11;10.90;99.90
26103;DHT22;32703;49.182;9.042;2022-10-12T04:34:36;10.90;99.90
26103;DHT22;32703;49.182;9.042;2022-10-12T04:37:02;10.90;99.90
26103;DHT22;32703;49.182;9.042;2022-10-12T04:39:28;10.90;99.90
26103;DHT22;32703;49.182;9.042;2022-10-12T04:41:53;10.90;99.90
26103;DHT22;32703;49.182;9.042;2022-10-12T04:44:19;10.90;99.90
26103;DHT22;32703;49.182;9.042;2022-10-12T04:46:45;10.80;99.90
26103;DHT22;32703;49.182;9.042;2022-10-12T04:49:10;10.80;99.90
26103;DHT22;32703;49.182;9.042;2022-10-12T04:51:36;10.80;99.90
26103;DHT22;32703;49.182;9.042;2022-10-12T04:54:02;10.80;99.90
26103;DHT22;32703;49.182;9.042;2022-10-12T04:56:27;10.80;99.90
26103;DHT22;32703;49.182;9.042;2022-10-12T04:58:53;10.80;99.90
26103;DHT22;32703;49.182;9.042;2022-10-12T05:01:18;10.80;99.90
26103;DHT22;32703;49.182;9.042;2022-10-12T05:03:44;10.80;99.90
26103;DHT22;32703;49.182;9.042;2022-10-12T05:06:09;10.80;99.90
26103;DHT22;32703;49.182;9.042;2022-10-12T05:08:35;10.80;99.90
26103;DHT22;32703;49.182;9.042;2022-10-12T05:11:01;10.80;99.90
26103;DHT22;32703;49.182;9.042;2022-10-12T05:13:26;10.80;99.90
26103;DHT22;32703;49.182;9.042;2022-10-12T05:15:53;10.90;99.90
26103;DHT22;32703;49.182;9.042;2022-10-12T05:18:18;10.80;99.90
26103;DHT22;32703;49.182;9.042;2022-10-12T05:20:44;10.80;99.90
26103;DHT22;32703;49.182;9.042;2022-10-12T05:23:10;10.80;99.90
26103;DHT22;32703;49.182;9.042;2022-10-12T05:25:36;10.80;99.90
26103;DHT22;32703;49.182;9.042;2022-10-12T05:28:02;10.80;99.90
26103;DHT22;32703;49.182;9.042;2022-10-12T05:30:27;10.80;99.90
26103;DHT22;32703;49.182;9.042;2022-10-12T05:32:53;10.80;99.90
26103;DHT22;32703;49.182;9.042;2022-10-12T05:35:18;10.80;99.90
26103;DHT22;32703;49.182;9.042;2022-10-12T05:37:44;10.80;99.90
26103;DHT22;32703;49.182;9.042;2022-10-12T05:40:10;10.80;99.90
26103;DHT22;32703;49.182;9.042;2022-10-12T05:42:36;10.80;99.90
26103;DHT22;32703;49.182;9.042;2022-10-12T05:45:02;10.80;99.90
26103;DHT22;32703;49.182;9.042;2022-10-12T05:47:28;10.80;99.90
26103;DHT22;32703;49.182;9.042;2022-10-12T05:49:53;10.90;99.90
26103;DHT22;32703;49.182;9.042;2022-10-12T05:52:28;10.90;99.90
26103;DHT22;32703;49.182;9.042;2022-10-12T05:54:53;10.80;99.90
26103;DHT22;32703;49.182;9.042;2022-10-12T05:57:19;10.80;99.90
26103;DHT22;32703;49.182;9.042;2022-10-12T05:59:45;10.80;99.90
26103;DHT22;32703;49.182;9.042;2022-10-12T06:02:15;10.80;99.90
26103;DHT22;32703;49.182;9.042;2022-10-12T06:04:41;10.80;99.90
26103;DHT22;32703;49.182;9.042;2022-10-12T06:07:07;10.80;99.90
26103;DHT22;32703;49.182;9.042;2022-10-12T06:09:32;10.80;99.90
26103;DHT22;32703;49.182;9.042;2022-10-12T06:11:58;10.80;99.90
26103;DHT22;32703;49.182;9.042;2022-10-12T06:14:23;10.80;99.90
26103;DHT22;32703;49.182;9.042;2022-10-12T06:16:49;10.90;99.90
26103;DHT22;32703;49.182;9.042;2022-10-12T06:19:15;10.90;99.90
26103;DHT22;32703;49.182;9.042;2022-10-12T06:21:40;10.90;99.90
26103;DHT22;32703;49.182;9.042;2022-10-12T06:24:06;10.90;99.90
26103;DHT22;32703;49.182;9.042;2022-10-12T06:26:31;11.00;99.90
26103;DHT22;32703;49.182;9.042;2022-10-12T06:28:57;11.00;99.90
26103;DHT22;32703;49.182;9.042;2022-10-12T06:31:25;11.10;99.90
26103;DHT22;32703;49.182;9.042;2022-10-12T06:33:50;11.00;99.90
26103;DHT22;32703;49.182;9.042;2022-10-12T06:36:16;11.10;99.90
26103;DHT22;32703;49.182;9.042;2022-10-12T06:38:42;11.10;99.90
26103;DHT22;32703;49.182;9.042;2022-10-12T06:41:08;11.10;99.90
26103;DHT22;32703;49.182;9.042;2022-10-12T06:43:33;11.20;99.90
26103;DHT22;32703;49.182;9.042;2022-10-12T06:46:00;11.20;99.90
26103;DHT22;32703;49.182;9.042;2022-10-12T06:48:26;11.20;99.90
26103;DHT22;32703;49.182;9.042;2022-10-12T06:50:51;11.20;99.90
26103;DHT22;32703;49.182;9.042;2022-10-12T06:53:17;11.20;99.90
26103;DHT22;32703;49.182;9.042;2022-10-12T06:55:43;11.20;99.90
26103;DHT22;32703;49.182;9.042;2022-10-12T06:58:09;11.30;99.90
26103;DHT22;32703;49.182;9.042;2022-10-12T07:00:35;11.30;99.90
26103;DHT22;32703;49.182;9.042;2022-10-12T07:03:01;11.30;99.90
26103;DHT22;32703;49.182;9.042;2022-10-12T07:05:26;11.30;99.90
26103;DHT22;32703;49.182;9.042;2022-10-12T07:07:52;11.40;99.90
26103;DHT22;32703;49.182;9.042;2022-10-12T07:10:18;11.40;99.90
26103;DHT22;32703;49.182;9.042;2022-10-12T07:12:43;11.50;99.90
26103;DHT22;32703;49.182;9.042;2022-10-12T07:15:09;11.60;99.90
26103;DHT22;32703;49.182;9.042;2022-10-12T07:17:35;11.70;99.90
26103;DHT22;32703;49.182;9.042;2022-10-12T07:20:00;11.80;99.90
26103;DHT22;32703;49.182;9.042;2022-10-12T07:22:26;12.00;99.90
26103;DHT22;32703;49.182;9.042;2022-10-12T07:24:52;12.10;99.90
26103;DHT22;32703;49.182;9.042;2022-10-12T07:27:17;12.20;99.90
26103;DHT22;32703;49.182;9.042;2022-10-12T07:29:43;12.30;99.90
26103;DHT22;32703;49.182;9.042;2022-10-12T07:32:08;12.30;99.90
26103;DHT22;32703;49.182;9.042;2022-10-12T07:34:34;12.30;99.90
26103;DHT22;32703;49.182;9.042;2022-10-12T07:37:00;12.30;99.90
26103;DHT22;32703;49.182;9.042;2022-10-12T07:39:26;12.30;99.90
26103;DHT22;32703;49.182;9.042;2022-10-12T07:41:52;12.30;99.90
26103;DHT22;32703;49.182;9.042;2022-10-12T07:44:18;12.40;99.90
26103;DHT22;32703;49.182;9.042;2022-10-12T07:46:44;12.40;99.90
26103;DHT22;32703;49.182;9.042;2022-10-12T07:49:14;12.40;99.90
26103;DHT22;32703;49.182;9.042;2022-10-12T07:51:41;12.40;99.90
26103;DHT22;32703;49.182;9.042;2022-10-12T07:54:10;12.40;99.90
26103;DHT22;32703;49.182;9.042;2022-10-12T07:56:36;12.50;99.90
26103;DHT22;32703;49.182;9.042;2022-10-12T07:59:03;12.50;99.90
26103;DHT22;32703;49.182;9.042;2022-10-12T08:01:29;12.60;99.90
26103;DHT22;32703;49.182;9.042;2022-10-12T08:03:56;12.70;99.90
26103;DHT22;32703;49.182;9.042;2022-10-12T08:06:23;12.70;99.90
26103;DHT22;32703;49.182;9.042;2022-10-12T08:08:50;12.80;99.90
26103;DHT22;32703;49.182;9.042;2022-10-12T08:11:16;12.80;99.90
26103;DHT22;32703;49.182;9.042;2022-10-12T08:13:42;12.90;99.90
26103;DHT22;32703;49.182;9.042;2022-10-12T08:16:17;13.00;99.90
26103;DHT22;32703;49.182;9.042;2022-10-12T08:18:43;13.10;99.90
26103;DHT22;32703;49.182;9.042;2022-10-12T08:21:10;13.20;99.90
26103;DHT22;32703;49.182;9.042;2022-10-12T08:23:37;13.40;99.90
26103;DHT22;32703;49.182;9.042;2022-10-12T08:26:03;13.40;99.90
26103;DHT22;32703;49.182;9.042;2022-10-12T08:28:29;13.60;99.90
26103;DHT22;32703;49.182;9.042;2022-10-12T08:30:54;13.80;99.90
26103;DHT22;32703;49.182;9.042;2022-10-12T08:33:20;13.90;99.90
26103;DHT22;32703;49.182;9.042;2022-10-12T08:35:46;14.10;99.90
26103;DHT22;32703;49.182;9.042;2022-10-12T08:38:12;14.10;99.90
26103;DHT22;32703;49.182;9.042;2022-10-12T08:41:03;14.20;99.90
26103;DHT22;32703;49.182;9.042;2022-10-12T08:43:51;14.40;99.90
26103;DHT22;32703;49.182;9.042;2022-10-12T08:46:20;14.60;99.90
26103;DHT22;32703;49.182;9.042;2022-10-12T08:48:57;14.70;99.90
26103;DHT22;32703;49.182;9.042;2022-10-12T08:51:27;14.90;99.90
26103;DHT22;32703;49.182;9.042;2022-10-12T08:53:57;15.00;99.90
26103;DHT22;32703;49.182;9.042;2022-10-12T08:56:24;15.30;99.90
26103;DHT22;32703;49.182;9.042;2022-10-12T08:58:51;15.30;99.90
26103;DHT22;32703;49.182;9.042;2022-10-12T09:01:33;15.70;99.90
26103;DHT22;32703;49.182;9.042;2022-10-12T09:04:31;15.90;99.90
26103;DHT22;32703;49.182;9.042;2022-10-12T09:07:29;16.00;99.90
26103;DHT22;32703;49.182;9.042;2022-10-12T09:15:35;16.30;99.90
26103;DHT22;32703;49.182;9.042;2022-10-12T09:18:04;16.50;99.90
26103;DHT22;32703;49.182;9.042;2022-10-12T09:20:49;16.70;99.90
26103;DHT22;32703;49.182;9.042;2022-10-12T09:25:40;16.90;99.90
26103;DHT22;32703;49.182;9.042;2022-10-12T09:28:14;17.00;99.90
26103;DHT22;32703;49.182;9.042;2022-10-12T09:30:50;16.90;99.90
26103;DHT22;32703;49.182;9.042;2022-10-12T09:33:23;16.90;99.90
26103;DHT22;32703;49.182;9.042;2022-10-12T09:35:52;16.80;99.90
26103;DHT22;32703;49.182;9.042;2022-10-12T09:38:18;16.90;99.90
26103;DHT22;32703;49.182;9.042;2022-10-12T09:40:45;17.10;99.90
26103;DHT22;32703;49.182;9.042;2022-10-12T09:43:13;17.00;99.90
26103;DHT22;32703;49.182;9.042;2022-10-12T09:45:39;17.40;99.90
26103;DHT22;32703;49.182;9.042;2022-10-12T09:48:10;17.60;99.90
26103;DHT22;32703;49.182;9.042;2022-10-12T09:51:00;17.90;99.90
26103;DHT22;32703;49.182;9.042;2022-10-12T09:53:39;18.30;99.90
26103;DHT22;32703;49.182;9.042;2022-10-12T09:56:12;18.50;99.40
26103;DHT22;32703;49.182;9.042;2022-10-12T09:58:52;18.90;99.10
26103;DHT22;32703;49.182;9.042;2022-10-12T10:01:20;19.20;98.40
26103;DHT22;32703;49.182;9.042;2022-10-12T10:06:40;19.60;97.20
26103;DHT22;32703;49.182;9.042;2022-10-12T10:11:49;20.00;96.20
26103;DHT22;32703;49.182;9.042;2022-10-12T10:14:15;20.30;95.00
26103;DHT22;32703;49.182;9.042;2022-10-12T10:16:47;20.50;94.90
26103;DHT22;32703;49.182;9.042;2022-10-12T10:19:20;21.00;94.70
26103;DHT22;32703;49.182;9.042;2022-10-12T10:21:49;21.30;93.80
26103;DHT22;32703;49.182;9.042;2022-10-12T10:24:27;21.70;92.90
26103;DHT22;32703;49.182;9.042;2022-10-12T10:26:58;21.90;91.40
26103;DHT22;32703;49.182;9.042;2022-10-12T10:29:34;22.10;91.10
26103;DHT22;32703;49.182;9.042;2022-10-12T10:32:15;22.20;90.50
26103;DHT22;32703;49.182;9.042;2022-10-12T10:34:58;22.50;90.00
26103;DHT22;32703;49.182;9.042;2022-10-12T10:37:24;22.70;88.60
26103;DHT22;32703;49.182;9.042;2022-10-12T10:39:52;23.00;86.70
26103;DHT22;32703;49.182;9.042;2022-10-12T10:42:29;23.10;85.70
26103;DHT22;32703;49.182;9.042;2022-10-12T10:45:01;23.10;84.70
26103;DHT22;32703;49.182;9.042;2022-10-12T10:47:30;22.90;84.60
26103;DHT22;32703;49.182;9.042;2022-10-12T10:49:57;23.00;84.30
26103;DHT22;32703;49.182;9.042;2022-10-12T10:57:42;22.40;84.30
26103;DHT22;32703;49.182;9.042;2022-10-12T11:00:13;22.10;85.10
26103;DHT22;32703;49.182;9.042;2022-10-12T11:03:09;21.90;85.50
26103;DHT22;32703;49.182;9.042;2022-10-12T11:06:15;21.70;86.50
26103;DHT22;32703;49.182;9.042;2022-10-12T11:08:42;21.40;87.80
26103;DHT22;32703;49.182;9.042;2022-10-12T11:11:13;21.30;88.70
26103;DHT22;32703;49.182;9.042;2022-10-12T11:13:44;21.10;89.10
26103;DHT22;32703;49.182;9.042;2022-10-12T11:16:38;21.00;89.70
26103;DHT22;32703;49.182;9.042;2022-10-12T11:19:23;20.90;90.10
26103;DHT22;32703;49.182;9.042;2022-10-12T11:21:54;20.80;90.20
26103;DHT22;32703;49.182;9.042;2022-10-12T11:24:27;20.60;90.30
26103;DHT22;32703;49.182;9.042;2022-10-12T11:27:20;20.40;90.70
26103;DHT22;32703;49.182;9.042;2022-10-12T11:29:46;20.10;91.00
26103;DHT22;32703;49.182;9.042;2022-10-12T11:32:32;20.00;91.50
26103;DHT22;32703;49.182;9.042;2022-10-12T16:23:26;16.40;99.90
26103;DHT22;32703;49.182;9.042;2022-10-12T16:25:52;16.40;99.90
26103;DHT22;32703;49.182;9.042;2022-10-12T16:28:19;16.40;99.90
26103;DHT22;32703;49.182;9.042;2022-10-12T16:30:44;16.50;99.90
26103;DHT22;32703;49.182;9.042;2022-10-12T16:33:10;16.50;99.90
26103;DHT22;32703;49.182;9.042;2022-10-12T16:35:38;16.50;99.90
26103;DHT22;32703;49.182;9.042;2022-10-12T16:38:04;16.50;99.90
26103;DHT22;32703;49.182;9.042;2022-10-12T16:40:33;16.50;99.90
26103;DHT22;32703;49.182;9.042;2022-10-12T16:42:58;16.40;99.90
26103;DHT22;32703;49.182;9.042;2022-10-12T16:45:27;16.40;99.90
26103;DHT22;32703;49.182;9.042;2022-10-12T16:47:52;16.30;99.90
26103;DHT22;32703;49.182;9.042;2022-10-12T16:50:20;16.30;99.90
26103;DHT22;32703;49.182;9.042;2022-10-12T16:52:46;16.20;99.90
26103;DHT22;32703;49.182;9.042;2022-10-12T16:55:11;16.10;99.90
26103;DHT22;32703;49.182;9.042;2022-10-12T16:57:38;16.00;99.90
26103;DHT22;32703;49.182;9.042;2022-10-12T17:00:10;15.80;99.90
26103;DHT22;32703;49.182;9.042;2022-10-12T17:02:40;15.70;99.90
26103;DHT22;32703;49.182;9.042;2022-10-12T17:05:06;15.60;99.90
26103;DHT22;32703;49.182;9.042;2022-10-12T17:07:31;15.50;99.90
26103;DHT22;32703;49.182;9.042;2022-10-12T17:09:57;15.50;99.90
26103;DHT22;32703;49.182;9.042;2022-10-12T17:12:23;15.30;99.90
26103;DHT22;32703;49.182;9.042;2022-10-12T17:14:50;15.20;99.90
26103;DHT22;32703;49.182;9.042;2022-10-12T17:17:17;15.10;99.90
26103;DHT22;32703;49.182;9.042;2022-10-12T17:19:43;15.00;99.90
26103;DHT22;32703;49.182;9.042;2022-10-12T17:22:11;14.90;99.90
26103;DHT22;32703;49.182;9.042;2022-10-12T17:24:40;14.80;99.90
26103;DHT22;32703;49.182;9.042;2022-10-12T17:27:11;14.80;99.90
26103;DHT22;32703;49.182;9.042;2022-10-12T17:29:37;14.60;99.90
26103;DHT22;32703;49.182;9.042;2022-10-12T17:32:07;14.60;99.90
26103;DHT22;32703;49.182;9.042;2022-10-12T17:34:39;14.50;99.90
26103;DHT22;32703;49.182;9.042;2022-10-12T17:37:06;14.50;99.90
26103;DHT22;32703;49.182;9.042;2022-10-12T17:39:35;14.50;99.90
26103;DHT22;32703;49.182;9.042;2022-10-12T17:42:01;14.40;99.90
26103;DHT22;32703;49.182;9.042;2022-10-12T17:44:27;14.40;99.90
26103;DHT22;32703;49.182;9.042;2022-10-12T17:46:52;14.40;99.90
26103;DHT22;32703;49.182;9.042;2022-10-12T17:49:19;14.30;99.90
26103;DHT22;32703;49.182;9.042;2022-10-12T17:51:45;14.30;99.90
26103;DHT22;32703;49.182;9.042;2022-10-12T17:54:15;14.30;99.90
26103;DHT22;32703;49.182;9.042;2022-10-12T17:56:41;14.20;99.90
26103;DHT22;32703;49.182;9.042;2022-10-12T17:59:07;14.10;99.90
26103;DHT22;32703;49.182;9.042;2022-10-12T18:01:35;14.10;99.90
26103;DHT22;32703;49.182;9.042;2022-10-12T18:04:02;14.00;99.90
26103;DHT22;32703;49.182;9.042;2022-10-12T18:06:29;13.90;99.90
26103;DHT22;32703;49.182;9.042;2022-10-12T18:08:55;13.80;99.90
26103;DHT22;32703;49.182;9.042;2022-10-12T18:11:22;13.70;99.90
26103;DHT22;32703;49.182;9.042;2022-10-12T18:13:50;13.70;99.90
26103;DHT22;32703;49.182;9.042;2022-10-12T18:16:19;13.60;99.90
26103;DHT22;32703;49.182;9.042;2022-10-12T18:18:45;13.50;99.90
26103;DHT22;32703;49.182;9.042;2022-10-12T18:21:16;13.40;99.90
26103;DHT22;32703;49.182;9.042;2022-10-12T18:23:42;13.30;99.90
26103;DHT22;32703;49.182;9.042;2022-10-12T18:26:09;13.30;99.90
26103;DHT22;32703;49.182;9.042;2022-10-12T18:28:36;13.20;99.90
26103;DHT22;32703;49.182;9.042;2022-10-12T18:31:02;13.20;99.90
26103;DHT22;32703;49.182;9.042;2022-10-12T18:33:29;13.10;99.90
26103;DHT22;32703;49.182;9.042;2022-10-12T18:35:54;13.10;99.90
26103;DHT22;32703;49.182;9.042;2022-10-12T18:38:26;13.00;99.90
26103;DHT22;32703;49.182;9.042;2022-10-12T18:40:52;13.00;99.90
26103;DHT22;32703;49.182;9.042;2022-10-12T18:43:17;12.90;99.90
26103;DHT22;32703;49.182;9.042;2022-10-12T18:45:43;13.00;99.90
26103;DHT22;32703;49.182;9.042;2022-10-12T18:48:11;12.90;99.90
26103;DHT22;32703;49.182;9.042;2022-10-12T18:50:38;12.90;99.90
26103;DHT22;32703;49.182;9.042;2022-10-12T18:53:04;12.80;99.90
26103;DHT22;32703;49.182;9.042;2022-10-12T18:55:30;12.70;99.90
26103;DHT22;32703;49.182;9.042;2022-10-12T18:57:56;12.80;99.90
26103;DHT22;32703;49.182;9.042;2022-10-12T19:00:21;12.80;99.90
26103;DHT22;32703;49.182;9.042;2022-10-12T19:02:47;12.70;99.90
26103;DHT22;32703;49.182;9.042;2022-10-12T19:05:13;12.60;99.90
26103;DHT22;32703;49.182;9.042;2022-10-12T19:07:39;12.60;99.90
26103;DHT22;32703;49.182;9.042;2022-10-12T19:10:05;12.50;99.90
26103;DHT22;32703;49.182;9.042;2022-10-12T19:12:34;12.50;99.90
26103;DHT22;32703;49.182;9.042;2022-10-12T19:15:00;12.40;99.90
26103;DHT22;32703;49.182;9.042;2022-10-12T19:17:25;12.40;99.90
26103;DHT22;32703;49.182;9.042;2022-10-12T19:19:51;12.30;99.90
26103;DHT22;32703;49.182;9.042;2022-10-12T19:22:19;12.30;99.90
26103;DHT22;32703;49.182;9.042;2022-10-12T19:24:44;12.30;99.90
26103;DHT22;32703;49.182;9.042;2022-10-12T19:27:10;12.30;99.90
26103;DHT22;32703;49.182;9.042;2022-10-12T19:29:36;12.20;99.90
26103;DHT22;32703;49.182;9.042;2022-10-12T19:32:01;12.20;99.90
26103;DHT22;32703;49.182;9.042;2022-10-12T19:34:27;12.20;99.90
26103;DHT22;32703;49.182;9.042;2022-10-12T19:36:53;12.20;99.90
26103;DHT22;32703;49.182;9.042;2022-10-12T19:39:21;12.20;99.90
26103;DHT22;32703;49.182;9.042;2022-10-12T19:41:47;12.10;99.90
26103;DHT22;32703;49.182;9.042;2022-10-12T19:44:13;12.10;99.90
26103;DHT22;32703;49.182;9.042;2022-10-12T19:46:40;12.10;99.90
26103;DHT22;32703;49.182;9.042;2022-10-12T19:49:07;12.10;99.90
26103;DHT22;32703;49.182;9.042;2022-10-12T19:51:35;12.10;99.90
26103;DHT22;32703;49.182;9.042;2022-10-12T19:54:03;12.00;99.90
26103;DHT22;32703;49.182;9.042;2022-10-12T19:56:30;12.00;99.90
26103;DHT22;32703;49.182;9.042;2022-10-12T19:58:56;11.90;99.90
26103;DHT22;32703;49.182;9.042;2022-10-12T20:01:31;11.90;99.90
26103;DHT22;32703;49.182;9.042;2022-10-12T20:03:58;11.80;99.90
26103;DHT22;32703;49.182;9.042;2022-10-12T20:06:26;11.90;99.90
26103;DHT22;32703;49.182;9.042;2022-10-12T20:08:53;11.80;99.90
26103;DHT22;32703;49.182;9.042;2022-10-12T20:11:19;11.80;99.90
26103;DHT22;32703;49.182;9.042;2022-10-12T20:13:46;11.80;99.90
26103;DHT22;32703;49.182;9.042;2022-10-12T20:16:13;11.80;99.90
26103;DHT22;32703;49.182;9.042;2022-10-12T20:18:39;11.80;99.90
26103;DHT22;32703;49.182;9.042;2022-10-12T20:21:06;11.70;99.90
26103;DHT22;32703;49.182;9.042;2022-10-12T20:23:34;11.70;99.90
26103;DHT22;32703;49.182;9.042;2022-10-12T20:26:04;11.70;99.90
26103;DHT22;32703;49.182;9.042;2022-10-12T20:28:30;11.70;99.90
26103;DHT22;32703;49.182;9.042;2022-10-12T20:31:05;11.70;99.90
26103;DHT22;32703;49.182;9.042;2022-10-12T20:33:36;11.60;99.90
26103;DHT22;32703;49.182;9.042;2022-10-12T20:36:02;11.60;99.90
26103;DHT22;32703;49.182;9.042;2022-10-12T20:38:28;11.50;99.90
26103;DHT22;32703;49.182;9.042;2022-10-12T20:41:01;11.50;99.90
26103;DHT22;32703;49.182;9.042;2022-10-12T20:43:27;11.40;99.90
26103;DHT22;32703;49.182;9.042;2022-10-12T20:45:52;11.30;99.90
26103;DHT22;32703;49.182;9.042;2022-10-12T20:48:18;11.30;99.90
26103;DHT22;32703;49.182;9.042;2022-10-12T20:50:43;11.20;99.90
26103;DHT22;32703;49.182;9.042;2022-10-12T20:53:09;11.30;99.90
26103;DHT22;32703;49.182;9.042;2022-10-12T20:55:38;11.20;99.90
26103;DHT22;32703;49.182;9.042;2022-10-12T20:58:03;11.20;99.90
26103;DHT22;32703;49.182;9.042;2022-10-12T21:00:31;11.10;99.90
26103;DHT22;32703;49.182;9.042;2022-10-12T21:02:57;11.20;99.90